createdAt,value
2019-06-10T00:00:41.962Z,12.95
2019-06-10T00:03:12.037Z,11.88
2019-06-10T00:05:41.621Z,12.05
2019-06-10T00:08:11.890Z,12.82
2019-06-10T00:10:42.113Z,12.15
2019-06-10T00:13:12.274Z,10.63
2019-06-10T00:15:41.448Z,11.60
2019-06-10T00:18:40.833Z,9.68
2019-06-10T00:20:41.301Z,11.28
2019-06-10T00:23:12.215Z,13.48
2019-06-10T00:25:41.299Z,13.65
2019-06-10T00:28:12.021Z,13.80
2019-06-10T00:30:41.492Z,12.95
2019-06-10T00:33:12.484Z,10.82
2019-06-10T00:35:41.618Z,12.23
2019-06-10T00:38:13.726Z,12.45
2019-06-10T00:40:41.896Z,14.80
2019-06-10T00:43:13.587Z,13.25
2019-06-10T00:45:42.696Z,13.28
2019-06-10T00:48:24.730Z,13.13
2019-06-10T00:50:42.015Z,11.90
2019-06-10T00:53:13.967Z,13.55
2019-06-10T00:55:41.827Z,13.05
2019-06-10T00:58:13.696Z,13.13
2019-06-10T01:00:41.988Z,14.03
2019-06-10T01:03:13.623Z,14.93
2019-06-10T01:05:42.211Z,13.40
2019-06-10T01:08:15.054Z,15.90
2019-06-10T01:10:43.946Z,14.00
2019-06-10T01:13:15.095Z,12.75
2019-06-10T01:15:43.663Z,14.87
2019-06-10T01:20:43.295Z,11.53
2019-06-10T01:23:15.511Z,13.35
2019-06-10T01:25:42.751Z,11.28
2019-06-10T01:28:16.722Z,11.30
2019-06-10T01:30:42.555Z,10.72
2019-06-10T01:33:12.837Z,11.08
2019-06-10T01:35:41.743Z,11.20
2019-06-10T01:38:13.538Z,14.80
2019-06-10T01:40:42.157Z,14.40
2019-06-10T01:43:13.350Z,12.05
2019-06-10T01:45:42.069Z,11.45
2019-06-10T01:48:13.072Z,13.93
2019-06-10T01:50:41.707Z,14.30
2019-06-10T01:53:13.763Z,13.98
2019-06-10T01:55:41.801Z,15.28
2019-06-10T01:58:14.707Z,16.80
2019-06-10T02:00:45.779Z,16.37
2019-06-10T02:03:17.230Z,14.20
2019-06-10T02:05:45.435Z,14.87
2019-06-10T02:08:15.886Z,13.45
2019-06-10T02:10:44.440Z,12.45
2019-06-10T02:13:23.700Z,12.53
2019-06-10T02:15:52.175Z,14.28
2019-06-10T02:18:22.452Z,13.60
2019-06-10T02:20:51.411Z,11.95
2019-06-10T02:23:23.183Z,10.90
2019-06-10T02:25:51.314Z,10.70
2019-06-10T02:28:22.044Z,10.13
2019-06-10T02:30:55.388Z,11.83
2019-06-10T02:33:30.518Z,12.28
2019-06-10T02:35:54.182Z,13.85
2019-06-10T02:38:33.134Z,12.33
2019-06-10T02:40:53.999Z,10.48
2019-06-10T02:43:32.055Z,9.95
2019-06-10T02:45:55.703Z,10.65
2019-06-10T02:48:30.126Z,10.28
2019-06-10T02:51:03.477Z,9.50
2019-06-10T02:53:36.127Z,10.48
2019-06-10T02:56:04.213Z,10.15
2019-06-10T02:58:38.420Z,10.35
2019-06-10T03:01:04.379Z,9.70
2019-06-10T03:03:43.674Z,9.15
2019-06-10T03:06:08.708Z,10.60
2019-06-10T03:08:37.013Z,11.33
2019-06-10T03:11:05.816Z,11.68
2019-06-10T03:13:35.727Z,12.90
2019-06-10T03:16:08.780Z,13.58
2019-06-10T03:18:37.612Z,12.50
2019-06-10T03:21:06.078Z,13.50
2019-06-10T03:23:35.656Z,12.03
2019-06-10T03:26:04.554Z,13.05
2019-06-10T03:28:33.503Z,11.95
2019-06-10T03:31:05.688Z,13.30
2019-06-10T03:33:41.092Z,12.55
2019-06-10T03:36:03.254Z,12.25
2019-06-10T03:38:32.678Z,12.05
2019-06-10T03:41:03.250Z,13.15
2019-06-10T03:43:33.030Z,12.85
2019-06-10T03:46:02.993Z,13.22
2019-06-10T03:48:32.814Z,15.25
2019-06-10T03:51:03.435Z,15.15
2019-06-10T03:53:33.844Z,14.73
2019-06-10T03:56:03.015Z,15.63
2019-06-10T03:58:32.825Z,14.15
2019-06-10T04:01:03.040Z,15.25
2019-06-10T04:03:33.937Z,14.55
2019-06-10T04:06:02.801Z,12.20
2019-06-10T04:08:32.846Z,11.83
2019-06-10T04:11:02.942Z,10.35
2019-06-10T04:13:33.832Z,10.25
2019-06-10T04:16:02.631Z,11.53
2019-06-10T04:18:32.857Z,12.15
2019-06-10T04:21:02.478Z,13.05
2019-06-10T04:23:33.531Z,12.20
2019-06-10T04:26:02.553Z,10.53
2019-06-10T04:28:33.635Z,9.95
2019-06-10T04:31:02.512Z,9.40
2019-06-10T04:33:33.228Z,9.25
2019-06-10T04:36:02.939Z,10.23
2019-06-10T04:38:32.713Z,8.90
2019-06-10T04:41:03.325Z,10.05
2019-06-10T04:43:35.361Z,8.18
2019-06-10T04:46:04.083Z,7.90
2019-06-10T04:48:32.964Z,9.15
2019-06-10T04:51:02.775Z,8.20
2019-06-10T04:53:33.031Z,7.65
2019-06-10T04:56:03.055Z,6.78
2019-06-10T04:58:33.383Z,7.35
2019-06-10T05:01:03.032Z,6.60
2019-06-10T05:03:33.048Z,6.55
2019-06-10T05:06:03.347Z,6.08
2019-06-10T05:08:33.806Z,6.95
2019-06-10T05:11:03.686Z,6.78
2019-06-10T05:13:33.903Z,6.75
2019-06-10T05:16:03.682Z,6.75
2019-06-10T05:18:33.237Z,6.35
2019-06-10T05:21:02.907Z,6.08
2019-06-10T05:23:32.910Z,6.37
2019-06-10T05:26:02.711Z,5.95
2019-06-10T05:28:34.171Z,6.00
2019-06-10T05:31:02.930Z,5.65
2019-06-10T05:33:33.506Z,5.72
2019-06-10T05:36:02.661Z,5.37
2019-06-10T05:38:35.208Z,5.20
2019-06-10T05:41:02.860Z,4.97
2019-06-10T05:43:34.318Z,6.25
2019-06-10T05:46:03.196Z,5.72
2019-06-10T05:48:33.648Z,5.17
2019-06-10T05:51:06.413Z,5.10
2019-06-10T05:53:35.416Z,5.45
2019-06-10T05:56:04.228Z,5.25
2019-06-10T05:58:35.861Z,5.33
2019-06-10T06:01:03.559Z,5.67
2019-06-10T06:03:35.099Z,5.22
2019-06-10T06:06:03.392Z,5.00
2019-06-10T06:08:34.025Z,5.37
2019-06-10T06:11:03.246Z,5.28
2019-06-10T06:13:34.090Z,5.55
2019-06-10T06:16:03.256Z,5.70
2019-06-10T06:18:34.658Z,6.05
2019-06-10T06:21:20.035Z,5.45
2019-06-10T06:23:36.621Z,6.22
2019-06-10T06:26:04.186Z,5.42
2019-06-10T06:28:34.583Z,5.10
2019-06-10T06:31:03.576Z,5.72
2019-06-10T06:33:35.952Z,5.12
2019-06-10T06:36:03.683Z,5.00
2019-06-10T06:38:34.932Z,5.53
2019-06-10T06:41:03.363Z,5.10
2019-06-10T06:43:37.034Z,4.70
2019-06-10T06:46:02.802Z,4.92
2019-06-10T06:48:36.656Z,5.12
2019-06-10T06:51:08.147Z,5.15
2019-06-10T06:53:44.421Z,4.53
2019-06-10T06:56:04.004Z,4.62
2019-06-10T06:58:35.245Z,5.00
2019-06-10T07:01:10.238Z,5.33
2019-06-10T07:03:38.109Z,4.33
2019-06-10T07:06:05.480Z,4.75
2019-06-10T07:08:36.153Z,4.10
2019-06-10T07:11:04.275Z,4.70
2019-06-10T07:13:37.070Z,4.55
2019-06-10T07:16:05.000Z,4.15
2019-06-10T07:18:37.549Z,4.72
2019-06-10T07:21:03.787Z,4.20
2019-06-10T07:23:35.032Z,3.80
2019-06-10T07:26:03.140Z,4.33
2019-06-10T07:28:33.928Z,4.15
2019-06-10T07:31:03.308Z,3.83
2019-06-10T07:33:34.827Z,4.75
2019-06-10T07:36:03.177Z,4.78
2019-06-10T07:38:33.831Z,5.00
2019-06-10T07:41:02.889Z,4.08
2019-06-10T07:43:34.004Z,4.28
2019-06-10T07:46:03.409Z,3.37
2019-06-10T07:48:34.794Z,4.12
2019-06-10T07:51:03.356Z,4.67
2019-06-10T07:53:34.907Z,4.00
2019-06-10T07:56:04.257Z,4.15
2019-06-10T07:58:35.204Z,4.00
2019-06-10T08:01:03.624Z,4.90
2019-06-10T08:03:34.911Z,5.33
2019-06-10T08:06:03.497Z,4.28
2019-06-10T08:08:33.048Z,4.20
2019-06-10T08:11:03.494Z,4.20
2019-06-10T08:13:32.610Z,3.40
2019-06-10T08:16:02.754Z,3.75
2019-06-10T08:18:38.238Z,3.83
2019-06-10T08:21:03.377Z,4.30
2019-06-10T08:23:32.945Z,3.92
2019-06-10T08:26:03.415Z,3.50
2019-06-10T08:28:33.251Z,3.30
2019-06-10T08:31:03.602Z,3.92
2019-06-10T08:33:33.073Z,3.20
2019-06-10T08:36:03.981Z,3.37
2019-06-10T08:38:33.092Z,3.60
2019-06-10T08:41:03.157Z,3.50
2019-06-10T08:43:33.221Z,3.17
2019-06-10T08:46:02.566Z,3.00
2019-06-10T08:48:33.000Z,2.60
2019-06-10T08:51:03.922Z,2.80
2019-06-10T08:53:33.026Z,2.75
2019-06-10T08:56:02.871Z,2.70
2019-06-10T08:58:33.096Z,2.80
2019-06-10T09:01:02.487Z,2.87
2019-06-10T09:03:32.430Z,2.52
2019-06-10T09:06:02.800Z,2.22
2019-06-10T09:08:32.724Z,3.77
2019-06-10T09:11:02.470Z,2.92
2019-06-10T09:13:33.694Z,2.65
2019-06-10T09:16:12.820Z,2.95
2019-06-10T09:18:33.673Z,2.62
2019-06-10T09:21:05.162Z,2.70
2019-06-10T09:23:34.081Z,2.52
2019-06-10T09:26:03.515Z,2.47
2019-06-10T09:28:32.973Z,2.87
2019-06-10T09:31:04.052Z,2.17
2019-06-10T09:33:33.157Z,2.60
2019-06-10T09:36:03.247Z,2.33
2019-06-10T09:38:33.649Z,2.72
2019-06-10T09:41:06.570Z,3.12
2019-06-10T09:43:35.524Z,2.72
2019-06-10T09:46:04.113Z,2.33
2019-06-10T09:48:33.785Z,2.00
2019-06-10T09:51:02.811Z,2.40
2019-06-10T09:53:41.302Z,2.62
2019-06-10T09:56:04.245Z,2.65
2019-06-10T09:58:33.009Z,3.05
2019-06-10T10:01:03.274Z,3.20
2019-06-10T10:03:33.105Z,3.17
2019-06-10T10:06:13.770Z,2.70
2019-06-10T10:08:33.991Z,2.25
2019-06-10T10:11:03.554Z,2.60
2019-06-10T10:13:35.392Z,2.72
2019-06-10T10:16:02.885Z,2.60
2019-06-10T10:18:33.438Z,2.70
2019-06-10T10:21:05.214Z,2.75
2019-06-10T10:23:50.104Z,2.30
2019-06-10T10:26:04.564Z,2.50
2019-06-10T10:28:33.714Z,2.20
2019-06-10T10:31:04.466Z,2.15
2019-06-10T10:33:33.406Z,2.67
2019-06-10T10:36:02.806Z,2.17
2019-06-10T10:38:34.490Z,2.37
2019-06-10T10:41:04.567Z,2.40
2019-06-10T10:43:36.580Z,2.62
2019-06-10T10:46:05.563Z,2.45
2019-06-10T10:48:33.569Z,2.08
2019-06-10T10:51:04.275Z,2.75
2019-06-10T10:53:33.055Z,2.90
2019-06-10T10:56:02.557Z,3.12
2019-06-10T10:58:33.023Z,2.20
2019-06-10T11:01:04.093Z,2.95
2019-06-10T11:03:33.543Z,2.70
2019-06-10T11:06:02.108Z,2.70
2019-06-10T11:08:33.172Z,2.67
2019-06-10T11:11:05.274Z,2.37
2019-06-10T11:13:36.170Z,2.70
2019-06-10T11:16:05.157Z,2.80
2019-06-10T11:18:34.181Z,2.30
2019-06-10T11:21:05.054Z,2.58
2019-06-10T11:23:34.717Z,2.60
2019-06-10T11:26:03.436Z,2.37
2019-06-10T11:28:32.263Z,2.30
2019-06-10T11:31:03.297Z,2.45
2019-06-10T11:33:32.851Z,3.00
2019-06-10T11:36:02.882Z,2.10
2019-06-10T11:38:32.853Z,2.98
2019-06-10T11:41:03.198Z,3.00
2019-06-10T11:43:33.249Z,2.62
2019-06-10T11:46:06.995Z,2.22
2019-06-10T11:48:32.949Z,2.80
2019-06-10T11:51:04.681Z,2.90
2019-06-10T11:53:34.390Z,2.62
2019-06-10T11:56:02.748Z,2.60
2019-06-10T11:58:33.352Z,2.77
2019-06-10T12:01:03.751Z,2.80
2019-06-10T12:03:32.139Z,2.87
2019-06-10T12:06:02.040Z,3.25
2019-06-10T12:08:32.895Z,2.72
2019-06-10T12:11:02.513Z,2.75
2019-06-10T12:13:34.285Z,2.70
2019-06-10T12:18:33.273Z,2.25
2019-06-10T12:21:03.991Z,2.37
2019-06-10T12:23:33.698Z,2.70
2019-06-10T12:26:04.819Z,2.17
2019-06-10T12:28:32.841Z,2.85
2019-06-10T12:31:06.407Z,2.17
2019-06-10T12:33:33.700Z,2.22
2019-06-10T12:36:06.159Z,2.08
2019-06-10T12:38:32.797Z,2.62
2019-06-10T12:41:09.653Z,2.30
2019-06-10T12:43:33.967Z,2.35
2019-06-10T12:46:03.360Z,2.55
2019-06-10T12:48:34.182Z,1.82
2019-06-10T12:51:08.018Z,2.70
2019-06-10T12:53:32.774Z,2.75
2019-06-10T12:56:07.295Z,2.67
2019-06-10T12:58:33.363Z,2.67
2019-06-10T13:01:05.409Z,3.02
2019-06-10T13:03:33.542Z,2.33
2019-06-10T13:06:07.272Z,2.45
2019-06-10T13:08:35.335Z,3.10
2019-06-10T13:11:05.425Z,3.12
2019-06-10T13:13:33.899Z,2.80
2019-06-10T13:16:06.735Z,2.83
2019-06-10T13:18:32.560Z,2.80
2019-06-10T13:21:06.975Z,3.15
2019-06-10T13:23:34.541Z,2.80
2019-06-10T13:26:07.187Z,3.10
2019-06-10T13:28:32.622Z,2.27
2019-06-10T13:31:05.914Z,3.00
2019-06-10T13:33:33.390Z,2.60
2019-06-10T13:36:04.767Z,2.60
2019-06-10T13:38:33.140Z,2.37
2019-06-10T13:41:04.118Z,2.80
2019-06-10T13:43:33.953Z,2.50
2019-06-10T13:46:07.008Z,2.45
2019-06-10T13:48:33.466Z,2.35
2019-06-10T13:51:08.275Z,2.60
2019-06-10T13:53:32.484Z,2.70
2019-06-10T13:56:18.990Z,2.42
2019-06-10T13:58:31.494Z,2.65
2019-06-10T14:00:59.940Z,2.47
2019-06-10T14:03:28.415Z,2.70
2019-06-10T14:05:59.862Z,2.90
2019-06-10T14:08:27.337Z,2.08
2019-06-10T14:10:56.104Z,2.65
2019-06-10T14:13:24.582Z,2.75
2019-06-10T14:15:54.319Z,2.62
2019-06-10T14:18:23.476Z,2.30
2019-06-10T14:23:33.134Z,2.20
2019-06-10T14:26:03.243Z,2.60
2019-06-10T14:28:40.507Z,3.02
2019-06-10T14:31:03.619Z,2.60
2019-06-10T14:33:32.999Z,2.83
2019-06-10T14:36:04.959Z,2.80
2019-06-10T14:38:32.678Z,3.17
2019-06-10T14:41:04.344Z,2.80
2019-06-10T14:43:33.276Z,2.98
2019-06-10T14:46:02.035Z,2.62
2019-06-10T14:48:33.367Z,2.90
2019-06-10T14:51:03.075Z,2.62
2019-06-10T14:53:33.450Z,2.40
2019-06-10T14:56:03.592Z,3.15
2019-06-10T14:58:31.934Z,2.60
2019-06-10T15:01:04.356Z,2.80
2019-06-10T15:03:32.800Z,2.90
2019-06-10T15:06:03.088Z,2.35
2019-06-10T15:08:32.288Z,2.70
2019-06-10T15:11:02.544Z,3.00
2019-06-10T15:13:32.736Z,2.83
2019-06-10T15:16:04.432Z,3.40
2019-06-10T15:18:33.071Z,2.90
2019-06-10T15:21:03.099Z,3.65
2019-06-10T15:23:32.535Z,2.98
2019-06-10T15:26:02.862Z,2.75
2019-06-10T15:28:31.871Z,3.00
2019-06-10T15:31:02.761Z,3.42
2019-06-10T15:33:32.705Z,2.70
2019-06-10T15:36:02.379Z,3.22
2019-06-10T15:38:32.760Z,3.20
2019-06-10T15:41:02.781Z,3.47
2019-06-10T15:43:33.065Z,2.75
2019-06-10T15:46:03.376Z,3.15
2019-06-10T15:48:32.072Z,2.95
2019-06-10T15:51:03.095Z,2.90
2019-06-10T15:53:32.811Z,3.30
2019-06-10T15:56:18.001Z,3.87
2019-06-10T15:58:32.339Z,2.95
2019-06-10T16:01:02.986Z,4.60
2019-06-10T16:03:33.120Z,3.27
2019-06-10T16:06:03.195Z,2.80
2019-06-10T16:08:32.499Z,3.10
2019-06-10T16:11:03.236Z,2.87
2019-06-10T16:13:32.389Z,3.67
2019-06-10T16:16:03.586Z,3.72
2019-06-10T16:18:32.892Z,3.05
2019-06-10T16:21:04.271Z,3.52
2019-06-10T16:23:34.074Z,4.20
2019-06-10T16:26:02.988Z,2.80
2019-06-10T16:28:32.891Z,3.00
2019-06-10T16:31:02.779Z,2.83
2019-06-10T16:33:33.461Z,3.52
2019-06-10T16:36:02.881Z,3.12
2019-06-10T16:38:32.843Z,2.85
2019-06-10T16:41:03.486Z,2.70
2019-06-10T16:43:33.499Z,2.62
2019-06-10T16:46:03.230Z,2.77
2019-06-10T16:48:33.403Z,2.65
2019-06-10T16:51:04.005Z,2.75
2019-06-10T16:53:35.591Z,2.80
2019-06-10T16:56:03.409Z,3.27
2019-06-10T16:58:33.487Z,2.80
2019-06-10T17:01:04.045Z,3.08
2019-06-10T17:03:33.843Z,2.77
2019-06-10T17:06:02.986Z,2.92
2019-06-10T17:08:33.537Z,3.95
2019-06-10T17:11:03.418Z,3.17
2019-06-10T17:13:31.951Z,3.45
2019-06-10T17:16:00.429Z,3.25
2019-06-10T17:18:30.063Z,3.47
2019-06-10T17:20:58.724Z,3.58
2019-06-10T17:23:31.445Z,3.40
2019-06-10T17:25:57.951Z,4.22
2019-06-10T17:28:29.790Z,4.22
2019-06-10T17:30:57.948Z,4.20
2019-06-10T17:33:28.228Z,4.50
2019-06-10T17:35:56.743Z,4.60
2019-06-10T17:38:25.215Z,4.78
2019-06-10T17:40:53.985Z,4.87
2019-06-10T17:43:23.324Z,5.83
2019-06-10T17:45:52.784Z,6.47
2019-06-10T17:48:23.700Z,5.30
2019-06-10T17:50:52.593Z,5.67
2019-06-10T17:53:22.269Z,5.62
2019-06-10T17:55:51.551Z,6.35
2019-06-10T17:58:33.431Z,5.20
2019-06-10T18:00:52.942Z,5.40
2019-06-10T18:03:23.133Z,5.83
2019-06-10T18:05:53.290Z,5.47
2019-06-10T18:08:22.908Z,5.92
2019-06-10T18:10:53.901Z,5.72
2019-06-10T18:13:24.157Z,5.20
2019-06-10T18:15:53.375Z,5.53
2019-06-10T18:18:22.408Z,6.20
2019-06-10T18:20:53.613Z,6.00
2019-06-10T18:23:23.125Z,6.03
2019-06-10T18:25:52.778Z,6.33
2019-06-10T18:28:22.617Z,6.87
2019-06-10T18:30:53.149Z,6.10
2019-06-10T18:33:23.022Z,5.95
2019-06-10T18:35:53.312Z,5.60
2019-06-10T18:38:22.317Z,6.20
2019-06-10T18:40:53.367Z,7.08
2019-06-10T18:43:22.983Z,7.47
2019-06-10T18:45:53.284Z,6.95
2019-06-10T18:48:23.102Z,6.90
2019-06-10T18:50:53.580Z,6.60
2019-06-10T18:53:23.725Z,6.47
2019-06-10T18:55:54.858Z,6.12
2019-06-10T18:58:22.615Z,6.83
2019-06-10T19:01:00.631Z,6.42
2019-06-10T19:03:23.373Z,7.55
2019-06-10T19:05:52.885Z,7.78
2019-06-10T19:08:22.475Z,8.58
2019-06-10T19:10:53.303Z,7.30
2019-06-10T19:13:22.512Z,7.62
2019-06-10T19:15:52.958Z,7.03
2019-06-10T19:18:23.270Z,7.60
2019-06-10T19:20:53.589Z,7.60
2019-06-10T19:23:22.869Z,9.08
2019-06-10T19:25:52.481Z,9.38
2019-06-10T19:28:22.799Z,9.95
2019-06-10T19:30:53.361Z,8.78
2019-06-10T19:33:23.495Z,8.20
2019-06-10T19:35:53.118Z,8.00
2019-06-10T19:38:23.138Z,7.37
2019-06-10T19:40:53.387Z,7.37
2019-06-10T19:43:22.188Z,7.08
2019-06-10T19:45:52.793Z,6.65
2019-06-10T19:48:20.902Z,7.15
2019-06-10T19:50:53.081Z,7.28
2019-06-10T19:53:19.472Z,8.83
2019-06-10T19:55:47.948Z,9.85
2019-06-10T19:58:16.752Z,12.03
2019-06-10T20:00:50.852Z,9.98
2019-06-10T20:03:16.276Z,11.12
2019-06-10T20:05:46.874Z,11.43
2019-06-10T20:08:15.299Z,11.40
2019-06-10T20:10:44.483Z,12.58
2019-06-10T20:13:13.456Z,12.93
2019-06-10T20:15:44.969Z,12.90
2019-06-10T20:18:12.473Z,10.68
2019-06-10T20:20:43.827Z,11.97
2019-06-10T20:23:11.211Z,11.10
2019-06-10T20:25:41.068Z,8.43
2019-06-10T20:28:09.959Z,11.53
2019-06-10T20:30:38.780Z,10.93
2019-06-10T20:33:07.275Z,10.03
2019-06-10T20:35:37.411Z,8.60
2019-06-10T20:38:06.050Z,9.45
2019-06-10T20:40:35.469Z,11.33
2019-06-10T20:43:04.344Z,11.60
2019-06-10T20:45:33.595Z,10.18
2019-06-10T20:48:02.918Z,8.43
2019-06-10T20:50:32.375Z,8.05
2019-06-10T20:53:11.994Z,8.98
2019-06-10T20:55:40.400Z,7.80
2019-06-10T20:58:04.298Z,8.48
2019-06-10T21:00:45.627Z,6.95
2019-06-10T21:03:08.386Z,11.20
2019-06-10T21:05:37.011Z,7.53
2019-06-10T21:08:05.900Z,7.03
2019-06-10T21:10:37.129Z,9.80
2019-06-10T21:13:07.008Z,10.88
2019-06-10T21:15:36.511Z,11.30
2019-06-10T21:18:05.807Z,12.28
2019-06-10T21:20:34.353Z,11.90
2019-06-10T21:23:03.229Z,9.73
2019-06-10T21:25:32.652Z,8.45
2019-06-10T21:28:03.105Z,9.40
2019-06-10T21:30:40.698Z,12.63
2019-06-10T21:33:03.530Z,13.72
2019-06-10T21:35:33.611Z,10.03
2019-06-10T21:38:02.069Z,14.38
2019-06-10T21:40:32.832Z,13.25
2019-06-10T21:43:02.984Z,14.43
2019-06-10T21:45:32.647Z,10.60
2019-06-10T21:48:02.223Z,12.60
2019-06-10T21:50:33.254Z,13.18
2019-06-10T21:53:03.079Z,11.15
2019-06-10T21:55:33.180Z,10.23
2019-06-10T21:58:03.672Z,9.55
2019-06-10T22:00:52.096Z,10.35
2019-06-10T22:03:07.392Z,11.97
2019-06-10T22:05:35.928Z,14.07
2019-06-10T22:08:04.546Z,12.10
2019-06-10T22:10:33.577Z,11.80
2019-06-10T22:13:03.153Z,10.72
2019-06-10T22:15:33.307Z,12.73
2019-06-10T22:18:02.436Z,15.70
2019-06-10T22:20:32.436Z,14.58
2019-06-10T22:23:02.587Z,14.85
2019-06-10T22:25:32.826Z,13.88
2019-06-10T22:28:02.680Z,11.90
2019-06-10T22:30:32.219Z,11.73
2019-06-10T22:33:03.021Z,10.32
2019-06-10T22:35:31.008Z,9.85
2019-06-10T22:37:59.558Z,11.08
2019-06-10T22:40:28.086Z,10.10
2019-06-10T22:42:56.829Z,10.18
2019-06-10T22:45:25.363Z,12.80
2019-06-10T22:47:55.405Z,13.43
2019-06-10T22:50:24.350Z,10.45
2019-06-10T22:52:54.582Z,13.68
2019-06-10T22:55:23.009Z,14.00
2019-06-10T22:57:54.722Z,15.88
2019-06-10T23:00:22.477Z,17.45
2019-06-10T23:02:54.273Z,14.70
2019-06-10T23:05:23.320Z,15.32
2019-06-10T23:07:54.170Z,16.52
2019-06-10T23:10:22.832Z,17.95
2019-06-10T23:12:54.752Z,15.45
2019-06-10T23:15:23.492Z,14.07
2019-06-10T23:17:55.293Z,12.70
2019-06-10T23:20:22.587Z,10.32
2019-06-10T23:22:54.423Z,9.63
2019-06-10T23:25:22.081Z,9.25
2019-06-10T23:27:53.233Z,9.40
2019-06-10T23:30:22.442Z,8.10
2019-06-10T23:32:54.261Z,9.20
2019-06-10T23:35:23.116Z,10.08
2019-06-10T23:37:55.057Z,11.20
2019-06-10T23:40:23.441Z,11.28
2019-06-10T23:42:53.014Z,9.83
2019-06-10T23:45:22.391Z,9.45
2019-06-10T23:47:52.865Z,8.63
2019-06-10T23:50:22.513Z,7.97
2019-06-10T23:52:54.183Z,8.13
2019-06-10T23:55:22.716Z,8.28
2019-06-10T23:57:52.987Z,9.28
